Dudinka, Russia
Current Conditions -  °F | °C
As of 12:30 PM on Friday 28 Nov 2014 (Local Time) from USNN Reporting Station
Clear Clear  
Wind Chill: -40°   Ceiling: Unl
Heat Index: -32°   Visibility: 6mi
Dew Point: -37°   Wind: 4mph
Humidity: 63%   Direction: 260°W
Pressure: 30.48"   Gusts: NA
Location:  69.41°N, 86.18°E
Report Text: USNN 280530Z 26002MPS CAVOK M32/M37 Q1032 NOSIG RMK QFE76921410260
Loading
Personal Weather Stations






























Interactive Weather Map New forecast layout! Learn more

10-Day Weather Forecast

Advertisements
Track Severe Weather on mobile